Terminal Aerodrome Forecast
Issued by NWS Miami, FL

Home | Current Version | Previous Version | Text Only | Print | Product List | Glossary On
Versions: 1 2 3 4 5 6 7 8 9 10 11 12 13 14 15 16 17 18 19 20 21 22 23 24 25 26 27 28 29 30 31
000
FTUS42 KMFL 171504 AAB
TAFFLL
TAF AMD
KFLL 171504Z 1715/1812 07015KT P6SM -SHRA VCTS FEW015 BKN025CB
      BKN035
     FM171700 08012KT P6SM SHRA VCTS SCT025CB BKN035
     FM180000 09011KT P6SM VCSH SCT025 SCT050 BKN100=

USA.gov is the U.S. government's official web portal to all federal, state and local government web resources and services.